Time;durP1;ratioP1;P1;durP2;ratioP2;P2;SDS_P1;SDS_P2;PMS_P1;PMS_P2;Temp;Humidity;BMP_temperature;BMP_pressure;BME280_temperature;BME280_humidity;BME280_pressure;Samples;Min_cycle;Max_cycle;Signal;HPM_P1;HPM_P2
2022/08/16 00:01:04;;;;;;;6.33;5.80;;;;;;;;;;5010263;28;20685;-55
2022/08/16 00:03:31;;;;;;;7.70;5.93;;;;;;;;;;5039436;28;20226;-55
2022/08/16 00:05:57;;;;;;;6.10;5.50;;;;;;;;;;5033638;28;20199;-55
2022/08/16 00:08:23;;;;;;;7.73;5.60;;;;;;;;;;5058487;28;20214;-56
2022/08/16 00:10:49;;;;;;;5.57;5.00;;;;;;;;;;5029861;28;20173;-55
2022/08/16 00:13:15;;;;;;;6.27;5.77;;;;;;;;;;5039258;28;20621;-55
2022/08/16 00:15:44;;;;;;;5.40;5.00;;;;;;;;;;5040954;28;20185;-55
2022/08/16 00:18:10;;;;;;;7.07;6.03;;;;;;;;;;5042481;28;20183;-56
2022/08/16 00:20:37;;;;;;;5.83;5.33;;;;;;;;;;5041811;28;20659;-55
2022/08/16 00:23:04;;;;;;;6.20;5.17;;;;;;;;;;5021297;28;20178;-55
2022/08/16 00:25:30;;;;;;;6.40;5.80;;;;;;;;;;5026971;28;20675;-56
2022/08/16 00:27:56;;;;;;;7.77;6.37;;;;;;;;;;5040666;28;20166;-55
2022/08/16 00:30:23;;;;;;;6.27;5.87;;;;;;;;;;5030525;28;20380;-55
2022/08/16 00:32:50;;;;;;;5.97;5.43;;;;;;;;;;5022970;28;20668;-55
2022/08/16 00:35:23;;;;;;;6.33;5.93;;;;;;;;;;5015531;28;20983;-55
2022/08/16 00:37:49;;;;;;;5.77;5.20;;;;;;;;;;5026570;28;20171;-56
2022/08/16 00:40:18;;;;;;;6.03;5.53;;;;;;;;;;5026030;28;20215;-56
2022/08/16 00:42:44;;;;;;;7.20;5.83;;;;;;;;;;5017651;28;20581;-56
2022/08/16 00:45:10;;;;;;;6.23;5.60;;;;;;;;;;5024587;28;20204;-56
2022/08/16 00:47:40;;;;;;;5.80;5.27;;;;;;;;;;5019745;28;20175;-55
2022/08/16 00:50:06;;;;;;;6.23;5.70;;;;;;;;;;5027833;28;20197;-55
2022/08/16 00:52:32;;;;;;;6.00;5.50;;;;;;;;;;5014628;28;20187;-55
2022/08/16 00:54:59;;;;;;;5.63;5.23;;;;;;;;;;5027886;28;20209;-56
2022/08/16 00:57:25;;;;;;;6.00;5.40;;;;;;;;;;5026340;28;20672;-55
2022/08/16 00:59:52;;;;;;;6.70;6.00;;;;;;;;;;5009506;28;20202;-55
2022/08/16 01:02:18;;;;;;;6.57;5.93;;;;;;;;;;5027216;28;20187;-56
2022/08/16 01:04:44;;;;;;;6.00;5.50;;;;;;;;;;5024146;28;20205;-56
2022/08/16 01:07:10;;;;;;;7.87;5.90;;;;;;;;;;5030018;28;20174;-55
2022/08/16 01:09:37;;;;;;;12.50;6.07;;;;;;;;;;5021965;28;20229;-56
2022/08/16 01:12:05;;;;;;;5.70;5.20;;;;;;;;;;5031159;28;20177;-55
2022/08/16 01:14:34;;;;;;;6.27;5.80;;;;;;;;;;5022217;28;20191;-56
2022/08/16 01:17:01;;;;;;;6.27;5.67;;;;;;;;;;5022917;28;20314;-55
2022/08/16 01:19:30;;;;;;;5.60;5.10;;;;;;;;;;5024862;28;20725;-56
2022/08/16 01:22:01;;;;;;;7.47;5.70;;;;;;;;;;5011123;28;20186;-55
2022/08/16 01:24:36;;;;;;;5.57;5.03;;;;;;;;;;5018762;28;20245;-55
2022/08/16 01:27:08;;;;;;;6.97;5.77;;;;;;;;;;5016285;28;20220;-55
2022/08/16 01:29:41;;;;;;;5.70;5.30;;;;;;;;;;5019284;28;20180;-55
2022/08/16 01:32:07;;;;;;;6.13;5.50;;;;;;;;;;5044665;28;20707;-55
2022/08/16 01:34:33;;;;;;;6.17;5.67;;;;;;;;;;5041457;28;20664;-56
2022/08/16 01:37:01;;;;;;;6.13;5.37;;;;;;;;;;5043895;28;20649;-55
2022/08/16 01:39:27;;;;;;;7.50;4.90;;;;;;;;;;5045984;28;20206;-56
2022/08/16 01:41:53;;;;;;;6.00;5.50;;;;;;;;;;5047782;28;20178;-56
2022/08/16 01:44:19;;;;;;;6.40;5.30;;;;;;;;;;5041566;28;20181;-56
2022/08/16 01:46:46;;;;;;;5.37;4.97;;;;;;;;;;5048420;28;20651;-56
2022/08/16 01:49:27;;;;;;;5.77;5.27;;;;;;;;;;5048593;28;20632;-56
2022/08/16 01:52:01;;;;;;;6.10;5.50;;;;;;;;;;5043565;28;20192;-56
2022/08/16 01:54:27;;;;;;;14.20;5.57;;;;;;;;;;5046330;28;20194;-56
2022/08/16 01:56:53;;;;;;;5.67;5.17;;;;;;;;;;5047940;28;20580;-55
2022/08/16 01:59:20;;;;;;;7.27;5.43;;;;;;;;;;5033840;28;20199;-56
2022/08/16 02:01:49;;;;;;;5.20;4.80;;;;;;;;;;5043989;28;20187;-55
2022/08/16 02:04:15;;;;;;;6.00;5.50;;;;;;;;;;5033481;28;20469;-56
2022/08/16 02:06:42;;;;;;;6.03;5.50;;;;;;;;;;5048697;28;20186;-56
2022/08/16 02:09:10;;;;;;;5.67;5.07;;;;;;;;;;5048068;28;20186;-55
2022/08/16 02:11:37;;;;;;;7.67;5.53;;;;;;;;;;5036496;28;20186;-55
2022/08/16 02:14:04;;;;;;;5.57;5.10;;;;;;;;;;5046113;28;20180;-55
2022/08/16 02:16:30;;;;;;;5.13;4.57;;;;;;;;;;5048557;28;20186;-55
2022/08/16 02:18:56;;;;;;;6.47;5.87;;;;;;;;;;5031774;28;20696;-56
2022/08/16 02:21:22;;;;;;;6.10;4.87;;;;;;;;;;5047290;28;20184;-55
2022/08/16 02:23:49;;;;;;;6.63;5.27;;;;;;;;;;5046067;28;20180;-55
2022/08/16 02:26:15;;;;;;;5.57;5.07;;;;;;;;;;5045547;28;20181;-55
2022/08/16 02:28:42;;;;;;;7.80;5.20;;;;;;;;;;5045865;28;20463;-55
2022/08/16 02:31:09;;;;;;;5.37;4.87;;;;;;;;;;5038696;28;20241;-55
2022/08/16 02:33:36;;;;;;;5.30;4.80;;;;;;;;;;5037666;28;20682;-55
2022/08/16 02:36:02;;;;;;;7.10;5.30;;;;;;;;;;5047332;28;20318;-55
2022/08/16 02:38:29;;;;;;;5.37;4.87;;;;;;;;;;5044857;28;20701;-55
2022/08/16 02:40:56;;;;;;;6.43;5.10;;;;;;;;;;5030162;28;20177;-55
2022/08/16 02:43:27;;;;;;;5.77;5.10;;;;;;;;;;5048682;28;20189;-55
2022/08/16 02:45:53;;;;;;;5.63;5.13;;;;;;;;;;5024459;28;20216;-58
2022/08/16 02:48:19;;;;;;;7.47;5.23;;;;;;;;;;5047049;28;20209;-58
2022/08/16 02:50:45;;;;;;;5.60;5.10;;;;;;;;;;5039241;28;20185;-56
2022/08/16 02:53:11;;;;;;;5.33;4.83;;;;;;;;;;5045592;28;20177;-58
2022/08/16 02:55:37;;;;;;;5.27;4.30;;;;;;;;;;5043388;28;20185;-57
2022/08/16 02:58:04;;;;;;;5.33;4.43;;;;;;;;;;5041157;28;20641;-58
2022/08/16 03:00:30;;;;;;;5.30;4.90;;;;;;;;;;5027935;28;20197;-58
2022/08/16 03:02:57;;;;;;;5.73;5.27;;;;;;;;;;5041116;28;20666;-58
2022/08/16 03:05:23;;;;;;;5.50;5.00;;;;;;;;;;5035292;28;20205;-57
2022/08/16 03:07:49;;;;;;;6.50;6.00;;;;;;;;;;5014731;28;20592;-58
2022/08/16 03:10:16;;;;;;;6.23;5.63;;;;;;;;;;5046102;28;20214;-59
2022/08/16 03:12:43;;;;;;;5.43;5.03;;;;;;;;;;5043718;28;20236;-58
2022/08/16 03:15:10;;;;;;;6.13;5.10;;;;;;;;;;5023164;28;20286;-58
2022/08/16 03:17:36;;;;;;;7.13;5.37;;;;;;;;;;5038700;28;20659;-58
2022/08/16 03:20:06;;;;;;;5.73;5.20;;;;;;;;;;5034668;28;20732;-57
2022/08/16 03:22:33;;;;;;;5.67;5.17;;;;;;;;;;5046992;28;20640;-57
2022/08/16 03:25:00;;;;;;;7.13;5.63;;;;;;;;;;5043975;28;20182;-58
2022/08/16 03:27:26;;;;;;;7.33;5.43;;;;;;;;;;5042653;28;20899;-58
2022/08/16 03:29:52;;;;;;;5.47;5.03;;;;;;;;;;5032166;28;20188;-58
2022/08/16 03:32:25;;;;;;;6.57;5.87;;;;;;;;;;5044409;28;20232;-58
2022/08/16 03:34:58;;;;;;;5.87;5.37;;;;;;;;;;5046392;28;20195;-58
2022/08/16 03:37:24;;;;;;;7.27;5.97;;;;;;;;;;5043591;28;20254;-59
2022/08/16 03:39:50;;;;;;;7.63;5.83;;;;;;;;;;5027503;28;20215;-59
2022/08/16 03:42:17;;;;;;;6.13;5.53;;;;;;;;;;5018982;28;20456;-58
2022/08/16 03:44:43;;;;;;;6.67;5.83;;;;;;;;;;5024097;28;20186;-58
2022/08/16 03:47:09;;;;;;;7.27;5.83;;;;;;;;;;5041496;28;20190;-58
2022/08/16 03:49:35;;;;;;;6.77;6.10;;;;;;;;;;5038118;28;20707;-59
2022/08/16 03:52:01;;;;;;;6.37;5.30;;;;;;;;;;5041819;28;20671;-59
2022/08/16 03:54:27;;;;;;;6.10;5.47;;;;;;;;;;5040329;28;20185;-59
2022/08/16 03:56:54;;;;;;;6.30;5.70;;;;;;;;;;5045504;28;20707;-59
2022/08/16 03:59:20;;;;;;;9.70;8.93;;;;;;;;;;5043393;28;20660;-60
2022/08/16 04:01:46;;;;;;;5.83;5.33;;;;;;;;;;5046117;28;20947;-57
2022/08/16 04:04:12;;;;;;;9.13;8.43;;;;;;;;;;5040749;28;20199;-60
2022/08/16 04:06:38;;;;;;;6.67;5.40;;;;;;;;;;5028103;28;20546;-60
2022/08/16 04:09:04;;;;;;;7.53;6.80;;;;;;;;;;5045676;28;20208;-59
2022/08/16 04:11:30;;;;;;;6.13;5.63;;;;;;;;;;5033736;28;20486;-57
2022/08/16 04:13:56;;;;;;;6.07;5.33;;;;;;;;;;5034839;28;20644;-58
2022/08/16 04:16:22;;;;;;;6.40;5.70;;;;;;;;;;5020765;28;20189;-60
2022/08/16 04:18:49;;;;;;;6.43;5.40;;;;;;;;;;5054177;28;20283;-60
2022/08/16 04:21:15;;;;;;;8.07;7.47;;;;;;;;;;5019068;28;20627;-59
2022/08/16 04:23:41;;;;;;;6.90;6.13;;;;;;;;;;5021854;28;20583;-60
2022/08/16 04:26:07;;;;;;;5.93;5.43;;;;;;;;;;5033169;28;20174;-60
2022/08/16 04:28:34;;;;;;;6.70;6.20;;;;;;;;;;5040028;28;20710;-60
2022/08/16 04:31:00;;;;;;;6.80;6.30;;;;;;;;;;5042255;28;20272;-60
2022/08/16 04:33:26;;;;;;;6.53;5.77;;;;;;;;;;5039001;28;20177;-61
2022/08/16 04:35:54;;;;;;;6.60;5.73;;;;;;;;;;5045271;28;20188;-61
2022/08/16 04:38:20;;;;;;;8.17;7.40;;;;;;;;;;5045431;28;20553;-60
2022/08/16 04:40:49;;;;;;;7.40;6.33;;;;;;;;;;5046142;28;20182;-61
2022/08/16 04:43:15;;;;;;;7.50;6.70;;;;;;;;;;5040678;28;20193;-60
2022/08/16 04:45:42;;;;;;;9.33;6.13;;;;;;;;;;5041845;28;20640;-59
2022/08/16 04:48:09;;;;;;;6.50;5.90;;;;;;;;;;5041648;28;20196;-60
2022/08/16 04:50:35;;;;;;;5.90;5.40;;;;;;;;;;5037417;28;20184;-60
2022/08/16 04:53:01;;;;;;;5.93;5.53;;;;;;;;;;5051489;28;20262;-60
2022/08/16 04:55:29;;;;;;;5.80;5.17;;;;;;;;;;5059539;28;20690;-60
2022/08/16 04:57:55;;;;;;;6.10;5.50;;;;;;;;;;5056867;28;20199;-59
2022/08/16 05:00:26;;;;;;;6.77;6.27;;;;;;;;;;5040465;28;20322;-60
2022/08/16 05:02:53;;;;;;;8.40;5.67;;;;;;;;;;5057391;28;20708;-59
2022/08/16 05:05:20;;;;;;;6.87;6.27;;;;;;;;;;5049237;28;20664;-60
2022/08/16 05:07:47;;;;;;;6.07;5.47;;;;;;;;;;5050537;28;20195;-60
2022/08/16 05:10:13;;;;;;;5.97;5.43;;;;;;;;;;5054474;28;20184;-58
2022/08/16 05:12:39;;;;;;;7.50;6.07;;;;;;;;;;5050441;28;20178;-59
2022/08/16 05:15:07;;;;;;;6.67;5.70;;;;;;;;;;5026855;28;20207;-58
2022/08/16 05:17:33;;;;;;;6.27;5.77;;;;;;;;;;5055719;28;20212;-58
2022/08/16 05:19:59;;;;;;;7.13;6.43;;;;;;;;;;5060959;28;20216;-59
2022/08/16 05:22:25;;;;;;;10.83;6.00;;;;;;;;;;5031404;28;20196;-59
2022/08/16 05:24:52;;;;;;;6.77;5.77;;;;;;;;;;5048923;28;20369;-60
2022/08/16 05:27:18;;;;;;;6.60;5.90;;;;;;;;;;5049940;28;20260;-60
2022/08/16 05:29:45;;;;;;;7.30;6.00;;;;;;;;;;5032312;28;20200;-59
2022/08/16 05:32:11;;;;;;;6.17;5.20;;;;;;;;;;5050161;28;20232;-60
2022/08/16 05:34:37;;;;;;;6.47;5.47;;;;;;;;;;5050137;28;20239;-58
2022/08/16 05:37:03;;;;;;;7.40;6.33;;;;;;;;;;5027672;28;20189;-60
2022/08/16 05:39:29;;;;;;;8.27;7.37;;;;;;;;;;5032347;28;20721;-60
2022/08/16 05:41:55;;;;;;;7.23;6.57;;;;;;;;;;5063509;28;20269;-59
2022/08/16 05:44:22;;;;;;;7.60;5.60;;;;;;;;;;5049664;28;20157;-60
2022/08/16 05:46:49;;;;;;;7.37;5.67;;;;;;;;;;5058430;28;20189;-60
2022/08/16 05:49:19;;;;;;;5.80;5.10;;;;;;;;;;5050608;28;20249;-59
2022/08/16 05:51:46;;;;;;;7.20;5.63;;;;;;;;;;5032994;28;20182;-60
2022/08/16 05:54:16;;;;;;;7.80;5.83;;;;;;;;;;5045709;28;20192;-59
2022/08/16 05:56:42;;;;;;;6.40;5.83;;;;;;;;;;5047132;28;20264;-59
2022/08/16 05:59:08;;;;;;;6.50;5.97;;;;;;;;;;5046880;28;20299;-59
2022/08/16 06:01:35;;;;;;;5.67;5.17;;;;;;;;;;5048100;28;20177;-60
2022/08/16 06:04:01;;;;;;;6.73;6.13;;;;;;;;;;5048146;28;20210;-58
2022/08/16 06:06:27;;;;;;;6.07;5.50;;;;;;;;;;5047164;28;20201;-59
2022/08/16 06:08:53;;;;;;;9.03;6.30;;;;;;;;;;5053564;28;20188;-60
2022/08/16 06:11:19;;;;;;;7.03;5.47;;;;;;;;;;5053559;28;20539;-59
2022/08/16 06:13:46;;;;;;;11.27;6.00;;;;;;;;;;5048341;28;20546;-59
2022/08/16 06:16:12;;;;;;;6.03;5.50;;;;;;;;;;5049347;28;20173;-59
2022/08/16 06:18:38;;;;;;;6.80;6.10;;;;;;;;;;5042886;28;20219;-59
2022/08/16 06:21:04;;;;;;;10.67;5.57;;;;;;;;;;5048753;28;20169;-60
2022/08/16 06:23:30;;;;;;;8.10;6.17;;;;;;;;;;5050340;28;20712;-59
2022/08/16 06:25:57;;;;;;;6.57;5.50;;;;;;;;;;5044732;28;20206;-59
2022/08/16 06:28:23;;;;;;;6.53;5.60;;;;;;;;;;5020877;28;20701;-60
2022/08/16 06:30:49;;;;;;;9.43;6.80;;;;;;;;;;5047845;28;20302;-60
2022/08/16 06:33:17;;;;;;;5.70;5.07;;;;;;;;;;5048001;28;20778;-60
2022/08/16 06:35:43;;;;;;;8.20;5.80;;;;;;;;;;5047187;28;20160;-60
2022/08/16 06:38:09;;;;;;;6.90;6.30;;;;;;;;;;5044615;28;20180;-60
2022/08/16 06:40:36;;;;;;;6.23;5.57;;;;;;;;;;5036490;28;20212;-60
2022/08/16 06:43:02;;;;;;;6.50;6.00;;;;;;;;;;5046124;28;20195;-59
2022/08/16 06:45:28;;;;;;;6.10;5.50;;;;;;;;;;5055743;28;20190;-60
2022/08/16 06:47:54;;;;;;;7.93;6.40;;;;;;;;;;5055416;28;20243;-60
2022/08/16 06:50:20;;;;;;;8.50;6.03;;;;;;;;;;5047909;28;20193;-59
2022/08/16 06:52:46;;;;;;;8.03;6.37;;;;;;;;;;5051036;28;20706;-59
2022/08/16 06:55:13;;;;;;;7.10;6.20;;;;;;;;;;5057850;28;20533;-59
2022/08/16 06:57:39;;;;;;;7.60;6.57;;;;;;;;;;5045230;28;20200;-59
2022/08/16 07:00:13;;;;;;;7.03;6.27;;;;;;;;;;5042253;28;20205;-60
2022/08/16 07:02:43;;;;;;;6.90;6.27;;;;;;;;;;5042252;28;20180;-59
2022/08/16 07:05:10;;;;;;;8.50;6.30;;;;;;;;;;5047992;28;20229;-60
2022/08/16 07:07:37;;;;;;;7.47;6.37;;;;;;;;;;5053887;28;20658;-60
2022/08/16 07:10:04;;;;;;;7.50;6.87;;;;;;;;;;5053704;28;20512;-60
2022/08/16 07:12:31;;;;;;;11.03;6.60;;;;;;;;;;5057822;28;20185;-60
2022/08/16 07:14:57;;;;;;;8.00;7.17;;;;;;;;;;5048484;28;20172;-59
2022/08/16 07:17:23;;;;;;;8.07;6.70;;;;;;;;;;5048435;28;20212;-60
2022/08/16 07:19:50;;;;;;;6.47;5.97;;;;;;;;;;5053362;28;20203;-60
2022/08/16 07:22:17;;;;;;;9.87;6.73;;;;;;;;;;5055727;28;20172;-60
2022/08/16 07:24:44;;;;;;;9.37;5.57;;;;;;;;;;5068372;28;20164;-60
2022/08/16 07:27:10;;;;;;;8.27;7.17;;;;;;;;;;5060242;28;20200;-59
2022/08/16 07:29:36;;;;;;;8.30;7.50;;;;;;;;;;5030225;28;20620;-60
2022/08/16 07:32:03;;;;;;;8.67;6.67;;;;;;;;;;5017973;28;20798;-60
2022/08/16 07:34:30;;;;;;;8.03;7.17;;;;;;;;;;5025295;28;20208;-58
2022/08/16 07:36:57;;;;;;;9.83;8.30;;;;;;;;;;5028917;28;20214;-60
2022/08/16 07:39:23;;;;;;;7.43;6.73;;;;;;;;;;5027697;28;20612;-60
2022/08/16 07:41:49;;;;;;;8.93;7.27;;;;;;;;;;5027287;28;20178;-60
2022/08/16 07:44:15;;;;;;;8.37;7.57;;;;;;;;;;5027146;28;20201;-60
2022/08/16 07:46:41;;;;;;;11.27;7.90;;;;;;;;;;5027813;28;20174;-60
2022/08/16 07:49:07;;;;;;;8.87;8.07;;;;;;;;;;5024728;28;20614;-59
2022/08/16 07:51:35;;;;;;;12.07;8.30;;;;;;;;;;5019037;28;20293;-60
2022/08/16 07:54:01;;;;;;;7.87;7.13;;;;;;;;;;5027579;28;20197;-60
2022/08/16 07:56:28;;;;;;;9.23;7.60;;;;;;;;;;5027930;28;20689;-60
2022/08/16 07:58:55;;;;;;;8.03;7.37;;;;;;;;;;5009063;28;20328;-59
2022/08/16 08:01:24;;;;;;;6.93;6.33;;;;;;;;;;5009849;28;20173;-59
2022/08/16 08:03:51;;;;;;;7.73;7.03;;;;;;;;;;5029078;28;20565;-60
2022/08/16 08:06:21;;;;;;;7.77;6.97;;;;;;;;;;5026227;28;20202;-60
2022/08/16 08:08:48;;;;;;;7.60;6.83;;;;;;;;;;5026998;28;20184;-58
2022/08/16 08:11:14;;;;;;;7.20;6.30;;;;;;;;;;5028002;28;20166;-60
2022/08/16 08:13:40;;;;;;;10.10;6.73;;;;;;;;;;5009172;28;20231;-60
2022/08/16 08:16:08;;;;;;;8.17;7.30;;;;;;;;;;5031891;28;20189;-60
2022/08/16 08:18:35;;;;;;;7.17;6.53;;;;;;;;;;5027494;28;20186;-60
2022/08/16 08:21:01;;;;;;;9.40;7.73;;;;;;;;;;5026295;28;20170;-60
2022/08/16 08:23:27;;;;;;;9.10;7.00;;;;;;;;;;5028730;28;20197;-60
2022/08/16 08:25:53;;;;;;;7.83;6.23;;;;;;;;;;5027609;28;20184;-58
2022/08/16 08:28:20;;;;;;;8.13;7.33;;;;;;;;;;5026854;28;20657;-60
2022/08/16 08:30:46;;;;;;;8.67;7.87;;;;;;;;;;5030231;28;20166;-60
2022/08/16 08:33:12;;;;;;;7.27;6.63;;;;;;;;;;5049387;28;20721;-60
2022/08/16 08:35:38;;;;;;;6.83;6.23;;;;;;;;;;5057923;28;20173;-60
2022/08/16 08:38:07;;;;;;;9.50;6.97;;;;;;;;;;5035170;28;20633;-60
2022/08/16 08:40:33;;;;;;;7.70;6.20;;;;;;;;;;5047464;28;20215;-60
2022/08/16 08:42:59;;;;;;;7.83;7.23;;;;;;;;;;5028511;28;20181;-59
2022/08/16 08:45:25;;;;;;;8.60;7.10;;;;;;;;;;5046834;28;20227;-61
2022/08/16 08:47:56;;;;;;;7.97;7.38;;;;;;;;;;5047184;28;20173;-60
2022/08/16 08:50:22;;;;;;;7.03;6.35;;;;;;;;;;5046859;28;20711;-59
2022/08/16 08:52:50;;;;;;;8.10;5.88;;;;;;;;;;5048772;28;20184;-59
2022/08/16 08:55:17;;;;;;;9.07;6.53;;;;;;;;;;5047497;28;20617;-60
2022/08/16 08:57:44;;;;;;;7.18;6.50;;;;;;;;;;5047117;28;20535;-60
2022/08/16 09:00:12;;;;;;;9.98;5.80;;;;;;;;;;5045738;28;20233;-60
2022/08/16 09:02:38;;;;;;;7.25;6.63;;;;;;;;;;5045767;28;20188;-60
2022/08/16 09:05:04;;;;;;;5.85;5.32;;;;;;;;;;5049676;28;20718;-59
2022/08/16 09:07:30;;;;;;;7.13;6.43;;;;;;;;;;5036317;28;20183;-59
2022/08/16 09:09:56;;;;;;;7.45;6.72;;;;;;;;;;5054665;28;20720;-60
2022/08/16 09:12:23;;;;;;;7.57;6.25;;;;;;;;;;5051952;28;20554;-60
2022/08/16 09:14:49;;;;;;;7.43;5.47;;;;;;;;;;5052557;28;20809;-59
2022/08/16 09:17:15;;;;;;;8.48;6.75;;;;;;;;;;5049923;28;20319;-60
2022/08/16 09:19:41;;;;;;;7.47;6.68;;;;;;;;;;5054541;28;20243;-60
2022/08/16 09:22:08;;;;;;;10.75;6.15;;;;;;;;;;5058553;28;20683;-60
2022/08/16 09:24:35;;;;;;;6.57;5.97;;;;;;;;;;5051258;28;20264;-60
2022/08/16 09:27:01;;;;;;;6.65;6.05;;;;;;;;;;5050756;28;20165;-61
2022/08/16 09:29:27;;;;;;;9.30;7.32;;;;;;;;;;5049851;28;20177;-61
2022/08/16 09:32:06;;;;;;;7.40;6.70;;;;;;;;;;5050414;28;20668;-59
2022/08/16 09:34:32;;;;;;;9.63;7.35;;;;;;;;;;5052751;28;20188;-60
2022/08/16 09:36:58;;;;;;;11.03;6.53;;;;;;;;;;5063527;28;20659;-61
2022/08/16 09:39:25;;;;;;;7.17;6.33;;;;;;;;;;5049932;28;20212;-59
2022/08/16 09:41:54;;;;;;;8.40;6.70;;;;;;;;;;5043563;28;20195;-60
2022/08/16 09:44:23;;;;;;;10.10;6.85;;;;;;;;;;5041756;28;20829;-60
2022/08/16 09:46:49;;;;;;;7.93;6.30;;;;;;;;;;5043547;28;20306;-60
2022/08/16 09:49:16;;;;;;;6.03;5.27;;;;;;;;;;5049659;28;20177;-61
2022/08/16 09:51:42;;;;;;;6.57;5.97;;;;;;;;;;5048951;28;20176;-61
2022/08/16 09:54:09;;;;;;;6.73;5.80;;;;;;;;;;5050592;28;20303;-61
2022/08/16 09:56:36;;;;;;;7.87;5.83;;;;;;;;;;5050059;28;20181;-60
2022/08/16 09:59:03;;;;;;;6.50;5.90;;;;;;;;;;5048766;28;20189;-61
2022/08/16 10:01:30;;;;;;;6.83;6.13;;;;;;;;;;5057430;28;20643;-59
2022/08/16 10:03:56;;;;;;;7.47;6.80;;;;;;;;;;5032099;28;20254;-62
2022/08/16 10:06:23;;;;;;;6.50;5.90;;;;;;;;;;5052402;28;20615;-61
2022/08/16 10:08:49;;;;;;;8.67;6.30;;;;;;;;;;5043743;28;20187;-59
2022/08/16 10:14:01;;;;;;;6.50;5.20;;;;;;;;;;5032165;28;20200;-61
2022/08/16 10:16:27;;;;;;;6.72;5.78;;;;;;;;;;5049716;28;20567;-61
2022/08/16 10:18:53;;;;;;;9.52;5.40;;;;;;;;;;5049726;28;20265;-62
2022/08/16 10:21:19;;;;;;;6.65;5.38;;;;;;;;;;5043121;28;20186;-60
2022/08/16 10:23:47;;;;;;;6.75;6.22;;;;;;;;;;5018860;28;20185;-60
2022/08/16 10:26:13;;;;;;;11.23;5.68;;;;;;;;;;5040922;28;20264;-60
2022/08/16 10:28:39;;;;;;;7.47;5.70;;;;;;;;;;5061085;28;20211;-61
2022/08/16 10:31:06;;;;;;;7.05;5.88;;;;;;;;;;5036469;28;20174;-58
2022/08/16 10:33:32;;;;;;;8.27;5.85;;;;;;;;;;5016172;28;20566;-62
2022/08/16 10:35:59;;;;;;;6.97;5.38;;;;;;;;;;5021252;28;20193;-61
2022/08/16 10:38:26;;;;;;;7.78;5.47;;;;;;;;;;5022670;28;20178;-60
2022/08/16 10:40:53;;;;;;;5.65;5.20;;;;;;;;;;5019716;28;20237;-61
2022/08/16 10:43:19;;;;;;;7.28;5.70;;;;;;;;;;5017446;28;20182;-61
2022/08/16 10:45:47;;;;;;;6.55;5.95;;;;;;;;;;5027181;28;20155;-58
2022/08/16 10:48:13;;;;;;;11.23;6.15;;;;;;;;;;5021109;28;20172;-61
2022/08/16 10:50:39;;;;;;;6.05;5.45;;;;;;;;;;5022730;28;20170;-61
2022/08/16 10:53:06;;;;;;;6.07;5.47;;;;;;;;;;5015445;28;20209;-59
2022/08/16 10:55:36;;;;;;;6.82;5.57;;;;;;;;;;5027132;28;20618;-62
2022/08/16 10:58:06;;;;;;;7.43;5.45;;;;;;;;;;5027723;28;20170;-62
2022/08/16 11:00:33;;;;;;;7.68;5.75;;;;;;;;;;5013451;28;20194;-61
2022/08/16 11:03:02;;;;;;;6.38;5.68;;;;;;;;;;5004113;28;20166;-62
2022/08/16 11:05:32;;;;;;;6.15;5.55;;;;;;;;;;5026488;28;20211;-62
2022/08/16 11:07:59;;;;;;;6.50;6.00;;;;;;;;;;5010346;28;20673;-61
2022/08/16 11:10:35;;;;;;;6.65;5.78;;;;;;;;;;5026222;28;20207;-62
2022/08/16 11:13:02;;;;;;;7.22;5.97;;;;;;;;;;5024133;28;20702;-61
2022/08/16 11:15:28;;;;;;;5.80;5.25;;;;;;;;;;5023343;28;20433;-61
2022/08/16 11:17:54;;;;;;;6.45;5.13;;;;;;;;;;5008670;28;20190;-62
2022/08/16 11:20:21;;;;;;;6.47;5.13;;;;;;;;;;5028165;28;20195;-62
2022/08/16 11:22:48;;;;;;;12.45;5.85;;;;;;;;;;5028777;28;20624;-62
2022/08/16 11:25:16;;;;;;;6.07;5.47;;;;;;;;;;4999359;28;20358;-62
2022/08/16 11:27:42;;;;;;;5.70;5.20;;;;;;;;;;5027073;28;20539;-61
2022/08/16 11:30:09;;;;;;;5.75;5.28;;;;;;;;;;5026502;28;20174;-62
2022/08/16 11:32:36;;;;;;;7.28;5.50;;;;;;;;;;5042978;28;20221;-62
2022/08/16 11:35:04;;;;;;;5.60;5.10;;;;;;;;;;5046885;28;20189;-61
2022/08/16 11:37:32;;;;;;;7.97;5.10;;;;;;;;;;5056320;28;20184;-62
2022/08/16 11:39:58;;;;;;;5.55;5.07;;;;;;;;;;5047306;28;20201;-62
2022/08/16 11:42:24;;;;;;;5.50;5.00;;;;;;;;;;5047126;28;20550;-62
2022/08/16 11:44:50;;;;;;;6.57;5.40;;;;;;;;;;5047402;28;20161;-61
2022/08/16 11:47:17;;;;;;;9.02;5.90;;;;;;;;;;5021548;28;20177;-60
2022/08/16 11:49:44;;;;;;;10.70;5.35;;;;;;;;;;5035509;28;20178;-62
2022/08/16 11:52:10;;;;;;;6.88;5.07;;;;;;;;;;5042819;28;20176;-62
2022/08/16 11:54:36;;;;;;;5.88;5.30;;;;;;;;;;5047751;28;20173;-61
2022/08/16 11:57:03;;;;;;;6.88;5.28;;;;;;;;;;5045776;28;20502;-63
2022/08/16 11:59:29;;;;;;;7.60;7.03;;;;;;;;;;5042203;28;20667;-63
2022/08/16 12:01:56;;;;;;;9.10;6.20;;;;;;;;;;5026357;28;20181;-62
2022/08/16 12:04:22;;;;;;;8.55;7.70;;;;;;;;;;5046180;28;20184;-58
2022/08/16 12:06:49;;;;;;;5.97;5.43;;;;;;;;;;5026853;28;20181;-57
2022/08/16 12:09:15;;;;;;;5.40;4.97;;;;;;;;;;5042532;28;20193;-57
2022/08/16 12:11:43;;;;;;;5.60;5.00;;;;;;;;;;5044931;28;20177;-58
2022/08/16 12:14:09;;;;;;;7.65;5.13;;;;;;;;;;5048846;28;20826;-56
2022/08/16 12:16:37;;;;;;;6.25;5.60;;;;;;;;;;5047482;28;20552;-56
2022/08/16 12:19:05;;;;;;;6.20;5.60;;;;;;;;;;5042764;28;20833;-56
2022/08/16 12:21:31;;;;;;;5.65;5.15;;;;;;;;;;5043008;28;20314;-57
2022/08/16 12:23:58;;;;;;;8.10;5.28;;;;;;;;;;5042166;28;20188;-57
2022/08/16 12:26:24;;;;;;;6.25;5.03;;;;;;;;;;5046036;28;20165;-56
2022/08/16 12:28:52;;;;;;;5.93;5.28;;;;;;;;;;5043835;28;20178;-58
2022/08/16 12:31:25;;;;;;;9.07;5.65;;;;;;;;;;5023487;28;20185;-56
2022/08/16 12:33:51;;;;;;;6.00;5.22;;;;;;;;;;5020505;28;20204;-56
2022/08/16 12:36:18;;;;;;;5.72;5.00;;;;;;;;;;5025547;28;20193;-57
2022/08/16 12:38:45;;;;;;;5.07;4.70;;;;;;;;;;5025530;28;20189;-57
2022/08/16 12:41:12;;;;;;;10.13;5.75;;;;;;;;;;5047049;28;20286;-56
2022/08/16 12:43:40;;;;;;;10.27;5.43;;;;;;;;;;5044588;28;20205;-55
2022/08/16 12:46:07;;;;;;;6.20;5.60;;;;;;;;;;5046030;28;20249;-57
2022/08/16 12:51:20;;;;;;;6.47;5.27;;;;;;;;;;5053221;28;20597;-56
2022/08/16 12:53:51;;;;;;;6.32;5.82;;;;;;;;;;5031568;28;20186;-56
2022/08/16 12:56:19;;;;;;;5.97;5.22;;;;;;;;;;5042459;28;20647;-57
2022/08/16 12:58:49;;;;;;;5.75;4.82;;;;;;;;;;5033804;28;20185;-58
2022/08/16 13:01:17;;;;;;;5.80;4.85;;;;;;;;;;5045717;28;20196;-58
2022/08/16 13:03:44;;;;;;;7.90;5.17;;;;;;;;;;5043396;28;20181;-57
2022/08/16 13:06:10;;;;;;;7.17;4.87;;;;;;;;;;5051261;28;20752;-56
2022/08/16 13:08:36;;;;;;;5.05;4.65;;;;;;;;;;5050745;28;20192;-56
2022/08/16 13:11:04;;;;;;;9.83;6.00;;;;;;;;;;5050717;28;20197;-56
2022/08/16 13:13:32;;;;;;;5.83;5.23;;;;;;;;;;5028250;28;20172;-57
2022/08/16 13:15:59;;;;;;;6.90;5.27;;;;;;;;;;5053357;28;20223;-57
2022/08/16 13:18:27;;;;;;;5.13;4.72;;;;;;;;;;5063184;28;20239;-55
2022/08/16 13:20:53;;;;;;;5.47;4.97;;;;;;;;;;5052109;28;20208;-57
2022/08/16 13:23:20;;;;;;;5.90;5.10;;;;;;;;;;5048264;28;20183;-55
2022/08/16 13:25:47;;;;;;;5.28;4.80;;;;;;;;;;5071061;28;20180;-56
2022/08/16 13:28:13;;;;;;;5.37;4.97;;;;;;;;;;5055053;28;20181;-58
2022/08/16 13:30:44;;;;;;;4.90;4.50;;;;;;;;;;5043130;28;20283;-57
2022/08/16 13:33:16;;;;;;;7.57;5.10;;;;;;;;;;5037652;28;20283;-56
2022/08/16 13:35:43;;;;;;;5.45;4.82;;;;;;;;;;5030601;28;20173;-56
2022/08/16 13:38:11;;;;;;;5.83;5.30;;;;;;;;;;5054425;28;20595;-56
2022/08/16 13:40:37;;;;;;;6.93;5.00;;;;;;;;;;5048947;28;20258;-55
2022/08/16 13:43:03;;;;;;;6.83;5.60;;;;;;;;;;5053869;28;20177;-57
2022/08/16 13:45:32;;;;;;;5.45;5.00;;;;;;;;;;5050308;28;20608;-55
2022/08/16 13:47:58;;;;;;;5.10;4.70;;;;;;;;;;5048644;28;20188;-57
2022/08/16 13:50:26;;;;;;;9.98;5.60;;;;;;;;;;5050061;28;20720;-56
2022/08/16 13:52:52;;;;;;;9.32;5.80;;;;;;;;;;5049568;28;20656;-59
2022/08/16 13:55:19;;;;;;;10.07;5.40;;;;;;;;;;5050230;28;20192;-58
2022/08/16 13:57:45;;;;;;;6.00;5.32;;;;;;;;;;5050446;28;20651;-55
2022/08/16 14:00:11;;;;;;;7.65;6.72;;;;;;;;;;5049831;28;20268;-55
2022/08/16 14:02:37;;;;;;;6.05;4.85;;;;;;;;;;5054070;28;20717;-56
2022/08/16 14:05:04;;;;;;;6.85;5.07;;;;;;;;;;5049093;28;20206;-57
2022/08/16 14:07:30;;;;;;;5.40;4.47;;;;;;;;;;5053514;28;20260;-56
2022/08/16 14:09:56;;;;;;;5.90;5.40;;;;;;;;;;5049013;28;20706;-55
2022/08/16 14:12:26;;;;;;;6.03;5.50;;;;;;;;;;5056834;28;20732;-56
2022/08/16 14:14:53;;;;;;;7.10;5.40;;;;;;;;;;5044616;28;20177;-56
2022/08/16 14:17:20;;;;;;;6.07;5.47;;;;;;;;;;5055390;28;20400;-57
2022/08/16 14:19:46;;;;;;;5.80;5.30;;;;;;;;;;5046146;28;20201;-56
2022/08/16 14:22:26;;;;;;;8.52;7.80;;;;;;;;;;5046951;28;20197;-56
2022/08/16 14:24:54;;;;;;;8.27;5.43;;;;;;;;;;5027693;28;20181;-56
2022/08/16 14:27:26;;;;;;;5.97;5.30;;;;;;;;;;5048472;28;20611;-56
2022/08/16 14:29:54;;;;;;;6.60;5.10;;;;;;;;;;5044920;28;20228;-55
2022/08/16 14:32:21;;;;;;;7.15;5.53;;;;;;;;;;5048020;28;20244;-57
2022/08/16 14:34:47;;;;;;;6.75;5.18;;;;;;;;;;5049911;28;20181;-57
2022/08/16 14:37:14;;;;;;;5.57;5.13;;;;;;;;;;5026444;28;20200;-56
2022/08/16 14:39:42;;;;;;;5.72;5.07;;;;;;;;;;5044828;28;20213;-56
2022/08/16 14:42:10;;;;;;;5.88;5.20;;;;;;;;;;5033686;28;20625;-57
2022/08/16 14:44:37;;;;;;;5.80;5.30;;;;;;;;;;5065190;28;20263;-56
2022/08/16 14:47:04;;;;;;;6.63;5.78;;;;;;;;;;5065264;28;20189;-56